Time;durP1;ratioP1;P1;durP2;ratioP2;P2;SDS_P1;SDS_P2;PMS_P1;PMS_P2;Temp;Humidity;BMP_temperature;BMP_pressure;BME280_temperature;BME280_humidity;BME280_pressure;Samples;Min_cycle;Max_cycle;Signal;HPM_P1;HPM_P2
2022/12/02 00:01:13;;;;;;;8.23;6.15;;;6.00;99.90;;;;;;4972561;28;20396;-51
2022/12/02 00:03:40;;;;;;;9.10;6.40;;;5.90;99.90;;;;;;4972612;28;20086;-51
2022/12/02 00:06:19;;;;;;;19.88;10.60;;;5.90;99.90;;;;;;4973061;28;20443;-51
2022/12/02 00:08:45;;;;;;;25.50;14.88;;;5.90;99.90;;;;;;4973137;28;20210;-51
2022/12/02 00:11:27;;;;;;;14.90;9.95;;;5.80;99.90;;;;;;4972871;28;20113;-52
2022/12/02 00:13:55;;;;;;;11.23;7.93;;;5.90;99.90;;;;;;4985877;28;20049;-51
2022/12/02 00:16:23;;;;;;;14.48;9.68;;;5.90;99.90;;;;;;4979613;28;20408;-51
2022/12/02 00:18:50;;;;;;;13.27;8.50;;;5.70;99.90;;;;;;5014497;28;20119;-51
2022/12/02 00:21:16;;;;;;;14.35;8.65;;;5.90;99.90;;;;;;5013981;28;20026;-51
2022/12/02 00:23:42;;;;;;;14.18;9.40;;;6.00;99.90;;;;;;5013847;28;20474;-51
2022/12/02 00:26:07;;;;;;;9.95;6.90;;;5.90;99.90;;;;;;4979847;28;20037;-51
2022/12/02 00:28:33;;;;;;;12.13;8.27;;;5.80;99.90;;;;;;5014282;28;20390;-51
2022/12/02 00:30:59;;;;;;;11.40;8.23;;;5.80;99.90;;;;;;5013928;28;20030;-52
2022/12/02 00:33:24;;;;;;;10.68;7.93;;;5.80;99.90;;;;;;5013954;28;20488;-52
2022/12/02 00:35:50;;;;;;;14.02;9.18;;;5.70;99.90;;;;;;5013655;28;20026;-50
2022/12/02 00:38:16;;;;;;;11.60;7.85;;;5.80;99.90;;;;;;4996115;28;20042;-51
2022/12/02 00:40:43;;;;;;;12.35;8.07;;;5.70;99.90;;;;;;5013909;28;20060;-51
2022/12/02 00:48:37;;;;;;;11.48;8.05;;;5.60;99.90;;;;;;5021168;28;20507;-51
2022/12/02 00:51:03;;;;;;;11.52;7.20;;;5.60;99.90;;;;;;4998539;28;20041;-51
2022/12/02 00:53:29;;;;;;;9.23;6.00;;;5.50;99.90;;;;;;5033307;28;20025;-51
2022/12/02 00:55:54;;;;;;;7.63;4.20;;;5.50;99.90;;;;;;5015451;28;20026;-51
2022/12/02 00:58:22;;;;;;;6.10;3.88;;;5.50;99.90;;;;;;5033453;28;20070;-51
2022/12/02 01:00:47;;;;;;;7.32;5.13;;;5.20;99.90;;;;;;5035008;28;20113;-51
2022/12/02 01:03:14;;;;;;;8.75;4.90;;;5.30;99.90;;;;;;5053305;28;20123;-51
2022/12/02 01:05:39;;;;;;;7.22;5.43;;;5.30;99.90;;;;;;5052944;28;20366;-51
2022/12/02 01:08:05;;;;;;;8.73;5.70;;;5.30;99.90;;;;;;5052811;28;20054;-51
2022/12/02 01:10:31;;;;;;;8.93;6.18;;;5.40;99.90;;;;;;5052758;28;20397;-51
2022/12/02 01:12:56;;;;;;;8.75;6.63;;;5.40;99.90;;;;;;5052132;28;20025;-52
2022/12/02 01:15:22;;;;;;;9.38;6.85;;;5.40;99.90;;;;;;5052893;28;20385;-51
2022/12/02 01:17:48;;;;;;;10.00;6.18;;;5.50;99.90;;;;;;5052911;28;20025;-51
2022/12/02 01:20:13;;;;;;;7.68;5.40;;;5.60;99.90;;;;;;5017826;28;20035;-52
2022/12/02 01:22:39;;;;;;;7.22;4.10;;;5.40;99.90;;;;;;5034534;28;20131;-51
2022/12/02 01:25:05;;;;;;;6.70;4.72;;;5.20;99.90;;;;;;5001422;28;20047;-52
2022/12/02 01:27:31;;;;;;;6.97;4.55;;;5.20;99.90;;;;;;5053153;28;20056;-51
2022/12/02 01:29:56;;;;;;;6.80;4.75;;;5.30;99.90;;;;;;5052638;28;20029;-51
2022/12/02 01:32:23;;;;;;;7.65;4.65;;;5.50;99.90;;;;;;5017869;28;20033;-50
2022/12/02 01:34:49;;;;;;;7.53;5.10;;;5.50;99.90;;;;;;5052752;28;20072;-51
2022/12/02 01:37:15;;;;;;;6.15;4.25;;;5.50;99.90;;;;;;5052710;28;20021;-51
2022/12/02 01:39:41;;;;;;;6.72;4.85;;;5.30;99.90;;;;;;5001693;28;20506;-51
2022/12/02 01:42:08;;;;;;;8.75;5.53;;;5.30;99.90;;;;;;5052534;28;20119;-51
2022/12/02 01:44:35;;;;;;;9.35;5.70;;;5.40;99.90;;;;;;5052593;28;20473;-51
2022/12/02 01:47:01;;;;;;;8.38;5.55;;;5.40;99.90;;;;;;5053105;28;20362;-51
2022/12/02 01:49:27;;;;;;;10.02;6.25;;;5.50;99.90;;;;;;5052360;28;20122;-51
2022/12/02 01:51:53;;;;;;;6.90;4.75;;;5.40;99.90;;;;;;5052444;28;20013;-51
2022/12/02 01:54:19;;;;;;;14.10;7.75;;;5.30;99.90;;;;;;5001167;28;20033;-51
2022/12/02 01:56:45;;;;;;;6.35;3.78;;;5.40;99.90;;;;;;5000986;28;20078;-51
2022/12/02 01:59:12;;;;;;;10.13;6.95;;;5.00;99.90;;;;;;5052316;28;20119;-51
2022/12/02 02:01:39;;;;;;;16.65;9.55;;;5.10;99.90;;;;;;5051769;28;20536;-51
2022/12/02 02:04:05;;;;;;;13.50;8.55;;;5.30;99.90;;;;;;5052452;28;20382;-51
2022/12/02 02:06:36;;;;;;;12.02;7.13;;;5.50;99.90;;;;;;5052375;28;20025;-52
2022/12/02 02:09:02;;;;;;;10.23;6.82;;;5.40;99.90;;;;;;5052390;28;20436;-51
2022/12/02 02:11:28;;;;;;;13.70;9.40;;;5.40;99.90;;;;;;5051824;28;20025;-52
2022/12/02 02:13:55;;;;;;;13.40;9.52;;;5.40;99.90;;;;;;5017505;28;20033;-51
2022/12/02 02:16:21;;;;;;;10.27;7.20;;;5.50;99.90;;;;;;5052108;28;20025;-52
2022/12/02 02:18:47;;;;;;;10.20;6.65;;;;;;;;;;5052420;28;20025;-50
2022/12/02 02:21:33;;;;;;;9.75;6.95;;;;;;;;;;5052327;28;20107;-51
2022/12/02 02:23:59;;;;;;;10.23;7.75;;;;;;;;;;5053615;28;20037;-51
2022/12/02 02:26:25;;;;;;;11.23;8.20;;;5.80;99.90;;;;;;5056168;28;20021;-51
2022/12/02 02:28:51;;;;;;;7.28;5.90;;;6.00;99.90;;;;;;5004509;28;20474;-51
2022/12/02 02:31:16;;;;;;;8.80;6.20;;;5.90;99.90;;;;;;5056410;28;20029;-51
2022/12/02 02:33:42;;;;;;;8.57;5.90;;;6.00;99.90;;;;;;5004586;28;20059;-51
2022/12/02 02:36:09;;;;;;;7.65;5.60;;;6.10;99.90;;;;;;5000908;28;20045;-52
2022/12/02 02:38:36;;;;;;;9.63;5.93;;;6.20;99.90;;;;;;5017501;28;20037;-51
2022/12/02 02:41:02;;;;;;;10.20;6.88;;;6.10;99.90;;;;;;5036034;28;20041;-51
2022/12/02 02:43:29;;;;;;;9.88;6.55;;;6.20;99.90;;;;;;5035596;28;20512;-51
2022/12/02 02:45:56;;;;;;;11.82;7.38;;;6.20;99.90;;;;;;5017405;28;20044;-50
2022/12/02 02:48:22;;;;;;;8.68;6.55;;;6.30;99.90;;;;;;5035670;28;20072;-51
2022/12/02 02:50:49;;;;;;;9.35;6.38;;;6.20;99.90;;;;;;5035403;28;20465;-51
2022/12/02 02:53:17;;;;;;;14.32;10.30;;;6.20;99.90;;;;;;5000807;28;20025;-51
2022/12/02 02:55:43;;;;;;;9.70;5.85;;;6.30;99.90;;;;;;5035436;28;20030;-51
2022/12/02 02:58:14;;;;;;;13.70;7.18;;;6.30;99.90;;;;;;5035532;28;20049;-51
2022/12/02 03:00:48;;;;;;;10.68;6.75;;;6.30;99.90;;;;;;5035264;28;20022;-51
2022/12/02 03:03:16;;;;;;;9.18;6.07;;;6.30;99.90;;;;;;5035645;28;20061;-51
2022/12/02 03:05:43;;;;;;;10.00;6.60;;;6.30;99.90;;;;;;5035581;28;20112;-51
2022/12/02 03:08:09;;;;;;;8.55;5.75;;;6.30;99.90;;;;;;5035492;28;20025;-51
2022/12/02 03:10:35;;;;;;;6.70;4.82;;;6.30;99.90;;;;;;5017086;28;20175;-51
2022/12/02 03:13:01;;;;;;;5.78;4.38;;;6.30;99.90;;;;;;5035131;28;20484;-51
2022/12/02 03:15:28;;;;;;;6.70;4.43;;;6.20;99.90;;;;;;5035546;28;20026;-50
2022/12/02 03:17:55;;;;;;;5.70;4.35;;;6.20;99.90;;;;;;5034910;28;20036;-51
2022/12/02 03:20:22;;;;;;;6.75;4.97;;;6.10;99.90;;;;;;5035379;28;20416;-51
2022/12/02 03:22:49;;;;;;;7.28;6.20;;;6.10;99.90;;;;;;5034839;28;20029;-51
2022/12/02 03:25:15;;;;;;;12.57;8.60;;;6.30;99.90;;;;;;5034976;28;20079;-51
2022/12/02 03:27:41;;;;;;;11.48;9.10;;;6.40;99.90;;;;;;5034958;28;20109;-52
2022/12/02 03:30:07;;;;;;;14.05;9.23;;;6.30;99.90;;;;;;5034997;28;20438;-52
2022/12/02 03:32:34;;;;;;;12.15;9.65;;;6.20;99.90;;;;;;5016561;28;20444;-51
2022/12/02 03:35:01;;;;;;;15.48;8.82;;;6.40;99.90;;;;;;5033984;28;20346;-51
2022/12/02 03:37:27;;;;;;;9.85;7.15;;;6.30;99.90;;;;;;5034793;28;20116;-52
2022/12/02 03:39:53;;;;;;;11.73;8.00;;;6.50;99.90;;;;;;5034470;28;20021;-52
2022/12/02 03:42:20;;;;;;;6.72;5.28;;;6.60;99.90;;;;;;5034948;28;20347;-52
2022/12/02 03:44:46;;;;;;;9.48;6.35;;;6.60;99.90;;;;;;5034150;28;20104;-51
2022/12/02 03:47:12;;;;;;;7.35;5.57;;;6.60;99.90;;;;;;5034464;28;20527;-51
2022/12/02 03:49:38;;;;;;;8.15;5.78;;;6.70;99.90;;;;;;5015901;28;20050;-52
2022/12/02 03:52:04;;;;;;;8.73;5.97;;;6.50;99.90;;;;;;5034314;28;20024;-51
2022/12/02 03:54:30;;;;;;;10.30;7.00;;;6.70;99.90;;;;;;5034356;28;20378;-49
2022/12/02 03:56:56;;;;;;;8.20;6.32;;;6.60;99.90;;;;;;5033755;28;20104;-50
2022/12/02 03:59:26;;;;;;;6.43;4.88;;;6.50;99.90;;;;;;4999635;28;20041;-50
2022/12/02 04:01:53;;;;;;;8.40;6.00;;;6.40;99.90;;;;;;5034235;28;20029;-50
2022/12/02 04:04:19;;;;;;;6.32;4.97;;;6.30;99.90;;;;;;5016040;28;20038;-50
2022/12/02 04:06:44;;;;;;;14.10;7.55;;;6.30;99.90;;;;;;4999486;28;20120;-52
2022/12/02 04:09:10;;;;;;;9.07;6.78;;;6.40;99.90;;;;;;5033933;28;20033;-49
2022/12/02 04:11:36;;;;;;;6.68;5.15;;;6.40;99.90;;;;;;5034046;28;20022;-49
2022/12/02 04:14:02;;;;;;;6.38;5.03;;;6.20;99.90;;;;;;5035068;28;20029;-49
2022/12/02 04:16:27;;;;;;;7.20;5.75;;;6.10;99.90;;;;;;5019020;28;20063;-49
2022/12/02 04:18:53;;;;;;;8.48;5.93;;;6.20;99.90;;;;;;5053906;28;20025;-49
2022/12/02 04:21:20;;;;;;;9.23;6.38;;;6.10;99.90;;;;;;5018740;28;20493;-49
2022/12/02 04:23:46;;;;;;;8.65;6.50;;;6.30;99.90;;;;;;5053921;28;20041;-50
2022/12/02 04:26:12;;;;;;;7.80;5.65;;;6.10;99.90;;;;;;5018512;28;20506;-50
2022/12/02 04:28:37;;;;;;;7.65;6.13;;;6.20;99.90;;;;;;5035116;28;20041;-50
2022/12/02 04:31:03;;;;;;;9.35;6.30;;;6.30;99.90;;;;;;5053777;28;20024;-51
2022/12/02 04:33:29;;;;;;;6.90;5.88;;;6.20;99.90;;;;;;5053710;28;20075;-49
2022/12/02 04:35:54;;;;;;;7.63;5.75;;;6.30;99.90;;;;;;5018553;28;20036;-50
2022/12/02 04:38:20;;;;;;;6.65;5.30;;;6.20;99.90;;;;;;5053444;28;20104;-50
2022/12/02 04:40:46;;;;;;;8.80;5.70;;;6.30;99.90;;;;;;5053414;28;20025;-50
2022/12/02 04:43:11;;;;;;;8.07;6.43;;;6.10;99.90;;;;;;5034804;28;20048;-50
2022/12/02 04:45:37;;;;;;;9.65;7.05;;;6.10;99.90;;;;;;5053510;28;20162;-50
2022/12/02 04:48:03;;;;;;;11.52;7.30;;;6.20;99.90;;;;;;5034537;28;20045;-50
2022/12/02 04:50:29;;;;;;;11.90;7.38;;;6.20;99.90;;;;;;5018402;28;20045;-50
2022/12/02 04:52:54;;;;;;;9.38;6.43;;;6.20;99.90;;;;;;5053353;28;20025;-50
2022/12/02 04:55:20;;;;;;;12.38;6.40;;;6.20;99.90;;;;;;5053930;28;20029;-50
2022/12/02 04:57:46;;;;;;;11.18;8.02;;;6.00;99.90;;;;;;5053127;28;20048;-50
2022/12/02 05:00:12;;;;;;;9.02;7.45;;;6.10;99.90;;;;;;5034673;28;20033;-51
2022/12/02 05:02:38;;;;;;;10.23;7.28;;;6.10;99.90;;;;;;5001469;28;20442;-51
2022/12/02 05:05:04;;;;;;;11.50;7.85;;;6.10;99.90;;;;;;5053047;28;20131;-50
2022/12/02 05:07:30;;;;;;;10.68;7.90;;;6.20;99.90;;;;;;5001088;28;20037;-50
2022/12/02 05:09:56;;;;;;;11.52;7.25;;;6.30;99.90;;;;;;5034320;28;20043;-49
2022/12/02 05:12:23;;;;;;;9.45;6.97;;;6.30;99.90;;;;;;5052815;28;20558;-50
2022/12/02 05:14:50;;;;;;;7.68;6.22;;;6.30;99.90;;;;;;5053122;28;20028;-49
2022/12/02 05:17:15;;;;;;;8.18;6.25;;;6.00;99.90;;;;;;5052207;28;20025;-50
2022/12/02 05:19:42;;;;;;;9.48;6.18;;;6.00;99.90;;;;;;5052313;28;20025;-50
2022/12/02 05:22:08;;;;;;;7.13;5.53;;;5.90;99.90;;;;;;5052317;28;20040;-50
2022/12/02 05:24:34;;;;;;;8.73;6.32;;;6.00;99.90;;;;;;5051942;28;20472;-50
2022/12/02 05:27:00;;;;;;;14.88;8.35;;;5.90;99.90;;;;;;5000669;28;20025;-49
2022/12/02 05:29:25;;;;;;;16.50;8.65;;;5.90;99.90;;;;;;5051852;28;20074;-50
2022/12/02 05:31:51;;;;;;;21.75;10.15;;;5.70;99.90;;;;;;5051981;28;20464;-51
2022/12/02 05:34:17;;;;;;;19.63;11.07;;;5.80;99.90;;;;;;5052117;28;20017;-49
2022/12/02 05:36:43;;;;;;;26.10;14.07;;;5.80;99.90;;;;;;5033178;28;20490;-50
2022/12/02 05:39:10;;;;;;;25.90;13.80;;;5.80;99.90;;;;;;5051746;28;20039;-52
2022/12/02 05:41:37;;;;;;;35.50;16.35;;;6.10;99.90;;;;;;5052078;28;20484;-50
2022/12/02 05:44:20;;;;;;;29.58;15.95;;;6.00;99.90;;;;;;5049945;28;20531;-50
2022/12/02 05:46:46;;;;;;;34.17;19.23;;;6.30;99.90;;;;;;5050433;28;20065;-50
2022/12/02 05:49:19;;;;;;;31.98;18.98;;;6.40;99.90;;;;;;5046112;28;20087;-50
2022/12/02 05:51:53;;;;;;;27.13;16.13;;;6.00;99.90;;;;;;5047726;28;20040;-50
2022/12/02 05:54:19;;;;;;;18.65;11.13;;;6.00;99.90;;;;;;5050696;28;20116;-51
2022/12/02 05:56:46;;;;;;;18.33;11.27;;;6.00;99.90;;;;;;5051829;28;20025;-50
2022/12/02 05:59:17;;;;;;;14.80;8.48;;;6.10;99.90;;;;;;5053951;28;20040;-51
2022/12/02 06:01:47;;;;;;;12.40;7.70;;;6.30;99.90;;;;;;5055611;28;20062;-51
2022/12/02 06:04:40;;;;;;;11.32;6.95;;;6.10;99.90;;;;;;5053381;28;20028;-51
2022/12/02 06:07:10;;;;;;;8.32;5.82;;;6.30;99.90;;;;;;5050963;28;20048;-51
2022/12/02 06:09:36;;;;;;;8.23;5.85;;;6.30;99.90;;;;;;5053644;28;20484;-51
2022/12/02 06:12:02;;;;;;;9.13;5.10;;;6.00;99.90;;;;;;5055337;28;20025;-51
2022/12/02 06:14:32;;;;;;;8.02;6.18;;;5.90;99.90;;;;;;5020332;28;20029;-50
2022/12/02 06:17:00;;;;;;;8.88;6.63;;;6.10;99.90;;;;;;5055624;28;20032;-51
2022/12/02 06:19:39;;;;;;;8.18;6.15;;;5.90;99.90;;;;;;5055002;28;20032;-51
2022/12/02 06:22:13;;;;;;;9.05;6.43;;;6.20;99.90;;;;;;5053074;28;20025;-51
2022/12/02 06:24:38;;;;;;;10.15;7.63;;;6.20;99.90;;;;;;5055049;28;20036;-52
2022/12/02 06:27:04;;;;;;;14.00;10.15;;;6.30;99.90;;;;;;4971075;28;20028;-51
2022/12/02 06:29:31;;;;;;;13.82;8.32;;;6.30;99.90;;;;;;5036645;28;20041;-51
2022/12/02 06:31:58;;;;;;;10.75;7.47;;;6.40;99.90;;;;;;5003736;28;20029;-50
2022/12/02 06:34:38;;;;;;;13.10;8.40;;;6.20;99.90;;;;;;5054887;28;20388;-51
2022/12/02 06:37:20;;;;;;;8.82;7.03;;;6.50;99.90;;;;;;5015442;28;20044;-51
2022/12/02 06:39:50;;;;;;;8.60;6.75;;;6.70;99.90;;;;;;5054164;28;20017;-52
2022/12/02 06:42:39;;;;;;;8.15;4.90;;;6.80;99.90;;;;;;5019215;28;20638;-51
2022/12/02 06:45:26;;;;;;;7.13;5.35;;;6.70;99.90;;;;;;4951015;29;20518;-51
2022/12/02 06:48:18;;;;;;;7.85;6.63;;;6.80;99.90;;;;;;4935201;29;20400;-51
2022/12/02 06:50:46;;;;;;;11.25;7.07;;;6.60;99.90;;;;;;4935306;29;20127;-51
2022/12/02 06:53:32;;;;;;;10.57;7.82;;;6.60;99.90;;;;;;4896789;29;20436;-52
2022/12/02 06:56:00;;;;;;;14.82;9.73;;;6.70;99.90;;;;;;4897019;29;21447;-51
2022/12/02 06:58:28;;;;;;;12.27;8.40;;;6.90;99.90;;;;;;4897031;29;20037;-51
2022/12/02 07:01:04;;;;;;;9.80;7.13;;;6.70;99.90;;;;;;4901480;29;20437;-52
2022/12/02 07:03:33;;;;;;;13.18;8.57;;;6.50;99.90;;;;;;4895903;29;20052;-51
2022/12/02 07:06:23;;;;;;;11.88;8.60;;;6.60;99.90;;;;;;4893295;29;20137;-51
2022/12/02 07:08:49;;;;;;;9.50;6.40;;;6.70;99.90;;;;;;4832673;29;20046;-51
2022/12/02 07:11:18;;;;;;;10.70;5.50;;;6.60;99.90;;;;;;4832569;29;20062;-51
2022/12/02 07:13:44;;;;;;;8.52;6.47;;;6.40;99.90;;;;;;4829673;29;20125;-53
2022/12/02 07:16:37;;;;;;;10.00;7.20;;;6.60;99.90;;;;;;4830411;29;20125;-51
2022/12/02 07:19:12;;;;;;;8.00;6.03;;;6.80;99.90;;;;;;4844561;29;20042;-51
2022/12/02 07:21:38;;;;;;;9.32;6.65;;;6.60;99.90;;;;;;4851186;29;20481;-51
2022/12/02 07:24:04;;;;;;;9.10;6.00;;;6.80;99.90;;;;;;4920894;29;20130;-51
2022/12/02 07:26:29;;;;;;;11.00;6.30;;;6.50;99.90;;;;;;4899844;29;20032;-51
2022/12/02 07:28:58;;;;;;;10.45;7.32;;;6.50;99.90;;;;;;4871648;29;20044;-52
2022/12/02 07:31:27;;;;;;;9.63;6.75;;;6.60;99.90;;;;;;4947012;29;20085;-51
2022/12/02 07:33:53;;;;;;;9.00;6.07;;;6.50;99.90;;;;;;4925809;29;20031;-51
2022/12/02 07:36:20;;;;;;;8.32;6.03;;;6.50;99.90;;;;;;4931862;29;20543;-51
2022/12/02 07:38:45;;;;;;;9.98;5.75;;;6.30;99.90;;;;;;4941447;29;20040;-53
2022/12/02 07:41:12;;;;;;;16.10;6.93;;;6.30;99.90;;;;;;4946777;29;20106;-50
2022/12/02 07:43:38;;;;;;;7.13;5.82;;;6.10;99.90;;;;;;4944103;29;20460;-51
2022/12/02 07:46:04;;;;;;;10.02;7.25;;;6.30;99.90;;;;;;4988870;28;20030;-50
2022/12/02 07:48:30;;;;;;;9.82;6.60;;;6.60;99.90;;;;;;5018384;28;20046;-52
2022/12/02 07:50:56;;;;;;;10.77;8.27;;;6.40;99.90;;;;;;4987368;28;20029;-51
2022/12/02 07:53:22;;;;;;;10.27;7.85;;;6.50;99.90;;;;;;5021719;28;20563;-51
2022/12/02 07:55:47;;;;;;;10.77;7.32;;;6.80;99.90;;;;;;5019927;28;20054;-50
2022/12/02 07:58:13;;;;;;;7.70;6.40;;;6.90;99.90;;;;;;5021662;28;20030;-49
2022/12/02 08:00:39;;;;;;;9.70;7.28;;;6.70;99.90;;;;;;5022595;28;20449;-47
2022/12/02 08:03:04;;;;;;;11.35;7.35;;;6.90;99.90;;;;;;5004453;28;20033;-55
2022/12/02 08:05:30;;;;;;;8.95;6.72;;;6.70;99.90;;;;;;5046287;28;20032;-54
2022/12/02 08:07:56;;;;;;;12.48;8.90;;;6.90;99.90;;;;;;4999505;28;20037;-52
2022/12/02 08:10:21;;;;;;;10.18;7.57;;;6.70;99.90;;;;;;5054656;28;20032;-52
2022/12/02 08:12:47;;;;;;;10.73;8.55;;;6.40;99.90;;;;;;5050188;28;20040;-53
2022/12/02 08:15:14;;;;;;;27.15;14.38;;;6.50;99.90;;;;;;5044930;28;20082;-54
2022/12/02 08:17:41;;;;;;;20.88;13.95;;;6.70;99.90;;;;;;5050301;28;20024;-53
2022/12/02 08:20:09;;;;;;;16.98;11.07;;;6.70;99.90;;;;;;5046982;28;20035;-53
2022/12/02 08:22:34;;;;;;;13.43;9.60;;;6.80;99.90;;;;;;4999866;28;20037;-52
2022/12/02 08:25:00;;;;;;;24.80;13.05;;;6.90;99.90;;;;;;5001822;28;20040;-53
2022/12/02 08:27:26;;;;;;;17.42;10.55;;;7.00;99.90;;;;;;4978904;28;20029;-53
2022/12/02 08:29:52;;;;;;;10.00;6.32;;;7.00;99.90;;;;;;5052802;28;20061;-53
2022/12/02 08:32:19;;;;;;;14.90;7.85;;;6.90;99.90;;;;;;4995393;28;20072;-51
2022/12/02 08:34:45;;;;;;;14.82;9.70;;;7.00;99.90;;;;;;5043957;28;20163;-50
2022/12/02 08:37:11;;;;;;;13.40;9.27;;;7.20;99.90;;;;;;5048352;28;20495;-50
2022/12/02 08:39:37;;;;;;;19.88;12.88;;;7.50;99.90;;;;;;4944500;28;20034;-49
2022/12/02 08:42:03;;;;;;;18.05;12.40;;;7.30;99.90;;;;;;5027717;28;20048;-51
2022/12/02 08:44:29;;;;;;;17.35;13.05;;;7.30;99.90;;;;;;5052822;28;20029;-50
2022/12/02 08:46:55;;;;;;;13.15;9.50;;;7.40;99.90;;;;;;5050874;28;20025;-49
2022/12/02 08:49:21;;;;;;;9.13;6.80;;;7.50;99.90;;;;;;5050985;28;20124;-50
2022/12/02 08:51:47;;;;;;;12.15;7.72;;;7.20;99.90;;;;;;5052582;28;20017;-50
2022/12/02 08:54:14;;;;;;;11.82;8.52;;;7.30;99.90;;;;;;5053483;28;20448;-50
2022/12/02 08:56:40;;;;;;;12.48;8.25;;;7.20;99.90;;;;;;5046954;28;20037;-50
2022/12/02 08:59:06;;;;;;;10.07;6.43;;;7.30;99.90;;;;;;5045277;28;20110;-50
2022/12/02 09:01:32;;;;;;;8.75;6.20;;;7.30;99.90;;;;;;5014169;28;20064;-50
2022/12/02 09:03:58;;;;;;;9.63;6.78;;;7.40;99.90;;;;;;5046293;28;20044;-49
2022/12/02 09:06:24;;;;;;;8.38;5.50;;;7.40;99.90;;;;;;5040772;28;20890;-50
2022/12/02 09:08:50;;;;;;;9.05;6.22;;;6.80;99.90;;;;;;5049306;28;20051;-50
2022/12/02 09:11:16;;;;;;;9.07;6.32;;;6.90;99.90;;;;;;5049075;28;20029;-48
2022/12/02 09:13:42;;;;;;;7.28;5.65;;;;;;;;;;4956834;28;20043;-50
2022/12/02 09:16:08;;;;;;;8.00;5.68;;;;;;;;;;5002411;28;20033;-49
2022/12/02 09:18:34;;;;;;;8.52;6.75;;;;;;;;;;5045430;28;20063;-50
2022/12/02 09:21:00;;;;;;;8.65;5.90;;;;;;;;;;5052513;28;20075;-50
2022/12/02 09:23:27;;;;;;;8.32;6.03;;;7.20;99.90;;;;;;5049510;28;20040;-49
2022/12/02 09:25:53;;;;;;;8.00;5.97;;;7.40;99.90;;;;;;5051428;28;20055;-50
2022/12/02 09:28:20;;;;;;;9.18;7.00;;;7.50;99.90;;;;;;5053135;28;20472;-50
2022/12/02 09:30:47;;;;;;;9.13;6.13;;;7.40;99.90;;;;;;5052606;28;20120;-48
2022/12/02 09:33:13;;;;;;;9.25;5.85;;;7.20;99.90;;;;;;5053964;28;20040;-50
2022/12/02 09:35:39;;;;;;;8.65;5.78;;;7.20;99.90;;;;;;5048443;28;20033;-49
2022/12/02 09:38:04;;;;;;;10.63;6.38;;;7.20;99.90;;;;;;5055266;28;20540;-49
2022/12/02 09:40:32;;;;;;;8.23;6.25;;;7.50;99.90;;;;;;5055022;28;20147;-52
2022/12/02 09:42:58;;;;;;;8.82;6.88;;;7.40;99.90;;;;;;5052099;28;20036;-53
2022/12/02 09:45:23;;;;;;;10.43;7.40;;;7.60;99.90;;;;;;5056529;28;20622;-51
2022/12/02 09:47:49;;;;;;;9.05;7.03;;;7.50;99.90;;;;;;5003297;28;20068;-49
2022/12/02 09:50:16;;;;;;;8.38;7.03;;;7.30;99.90;;;;;;5056833;28;20033;-48
2022/12/02 09:52:42;;;;;;;9.38;6.22;;;7.50;99.90;;;;;;5020306;28;20036;-52
2022/12/02 09:55:14;;;;;;;8.65;5.70;;;7.40;99.90;;;;;;5054788;28;20021;-50
2022/12/02 09:57:40;;;;;;;8.88;6.15;;;7.30;99.90;;;;;;5051319;28;20110;-50
2022/12/02 10:00:13;;;;;;;9.20;7.00;;;7.20;99.90;;;;;;5019725;28;20037;-47
2022/12/02 10:02:45;;;;;;;9.23;5.95;;;7.40;99.90;;;;;;4999842;28;20056;-50
2022/12/02 10:05:11;;;;;;;;;;;;;;;;;;5015376;28;20074;-50
2022/12/02 10:07:37;;;;;;;6.72;5.32;;;;;;;;;;5002852;28;19921;-49
2022/12/02 10:10:03;;;;;;;8.35;6.93;;;;;;;;;;4985901;28;20055;-49
2022/12/02 10:12:29;;;;;;;12.23;6.90;;;;;;;;;;5013108;28;20038;-52
2022/12/02 10:14:58;;;;;;;20.20;13.32;;;7.20;99.90;;;;;;5012769;28;20126;-55
2022/12/02 10:17:23;;;;;;;16.02;12.45;;;7.20;99.90;;;;;;4929314;28;20067;-54
2022/12/02 10:19:51;;;;;;;12.65;8.70;;;7.60;99.90;;;;;;5013012;28;20390;-52
2022/12/02 10:22:19;;;;;;;10.10;8.55;;;7.30;99.90;;;;;;5013400;28;20045;-52
2022/12/02 10:24:46;;;;;;;13.10;9.95;;;7.40;99.90;;;;;;4975768;28;20486;-52
2022/12/02 10:27:32;;;;;;;16.05;10.82;;;7.50;99.90;;;;;;5011816;28;20026;-54
2022/12/02 10:30:21;;;;;;;12.55;8.68;;;7.60;99.90;;;;;;4964446;28;20042;-51
2022/12/02 10:33:00;;;;;;;15.23;11.20;;;7.60;99.90;;;;;;5008270;28;20362;-50
2022/12/02 10:35:45;;;;;;;22.90;15.07;;;;;;;;;;5021947;28;20053;-53
2022/12/02 10:38:42;;;;;;;14.23;11.60;;;8.20;99.90;;;;;;5055924;28;20036;-52
2022/12/02 10:41:24;;;;;;;13.27;9.50;;;8.00;99.90;;;;;;5055757;28;20380;-50
2022/12/02 10:43:53;;;;;;;;;;;7.80;99.90;;;;;;5054674;28;20037;-48
2022/12/02 10:46:19;;;;;;;14.98;10.50;;;8.00;99.90;;;;;;5056017;28;19905;-50
2022/12/02 10:48:46;;;;;;;11.02;9.55;;;8.10;99.90;;;;;;4976358;28;20070;-51
2022/12/02 10:51:16;;;;;;;10.10;8.77;;;8.30;99.90;;;;;;4992550;28;20488;-53
2022/12/02 10:53:43;;;;;;;16.50;12.98;;;;;;;;;;4991040;28;20116;-50
2022/12/02 10:56:24;;;;;;;14.02;9.07;;;8.60;99.90;;;;;;4993908;28;20113;-53
2022/12/02 10:58:51;;;;;;;200.05;124.18;;;8.70;99.90;;;;;;4990734;28;20525;-51
2022/12/02 11:01:21;;;;;;;40.35;29.42;;;9.00;99.90;;;;;;4939496;28;20034;-49
2022/12/02 11:03:47;;;;;;;14.82;10.77;;;9.10;99.90;;;;;;4971272;28;20047;-56
2022/12/02 11:06:19;;;;;;;11.25;8.75;;;9.20;99.90;;;;;;4968373;28;20454;-54
2022/12/02 11:08:46;;;;;;;10.85;7.93;;;9.30;99.90;;;;;;4939743;28;20491;-54
2022/12/02 11:11:23;;;;;;;12.43;9.27;;;9.40;99.90;;;;;;4962948;28;20508;-48
2022/12/02 11:13:56;;;;;;;10.32;8.40;;;9.50;99.90;;;;;;4966530;28;20035;-51
2022/12/02 11:16:28;;;;;;;10.43;8.45;;;9.80;99.90;;;;;;4963305;28;20193;-55
2022/12/02 11:19:04;;;;;;;11.07;8.98;;;9.50;99.90;;;;;;4944692;28;20038;-53
2022/12/02 11:21:32;;;;;;;12.82;10.57;;;10.20;99.90;;;;;;5011357;28;20038;-52
2022/12/02 11:24:22;;;;;;;13.25;8.90;;;10.50;99.90;;;;;;4998959;28;20065;-52
2022/12/02 11:27:02;;;;;;;8.85;7.15;;;10.80;99.90;;;;;;5002894;28;20038;-53
2022/12/02 11:29:38;;;;;;;13.32;10.15;;;10.90;99.90;;;;;;5002115;28;20033;-52
2022/12/02 11:32:24;;;;;;;9.38;6.88;;;11.00;99.90;;;;;;5022263;28;20523;-52
2022/12/02 11:34:59;;;;;;;9.13;7.10;;;11.10;99.90;;;;;;5016441;28;20433;-51
2022/12/02 11:37:34;;;;;;;10.13;8.45;;;11.10;99.90;;;;;;5053417;28;20033;-54
2022/12/02 11:40:09;;;;;;;11.85;7.70;;;10.80;99.90;;;;;;5054765;28;20118;-54
2022/12/02 11:42:37;;;;;;;9.63;7.70;;;10.70;99.90;;;;;;5036368;28;20400;-56
2022/12/02 11:45:15;;;;;;;12.93;8.35;;;11.20;99.90;;;;;;5054822;28;20108;-55
2022/12/02 11:47:54;;;;;;;9.10;7.15;;;11.60;99.90;;;;;;5054657;28;20477;-52
2022/12/02 11:50:22;;;;;;;13.10;8.93;;;11.70;99.90;;;;;;5054957;28;20037;-54
2022/12/02 11:52:54;;;;;;;8.07;6.68;;;11.20;99.90;;;;;;5054515;28;20029;-55
2022/12/02 11:55:22;;;;;;;9.48;6.70;;;11.10;99.90;;;;;;5054238;28;20032;-55
2022/12/02 11:57:54;;;;;;;10.43;7.78;;;10.80;99.90;;;;;;5053874;28;20033;-51
2022/12/02 12:00:25;;;;;;;8.00;5.93;;;10.40;99.90;;;;;;5054346;28;20057;-52
2022/12/02 12:03:16;;;;;;;14.43;8.97;;;9.60;99.90;;;;;;4976475;28;20043;-50
2022/12/02 12:06:18;;;;;;;10.10;8.00;;;9.30;99.90;;;;;;4992831;28;20355;-51
2022/12/02 12:08:49;;;;;;;11.48;8.80;;;9.10;99.90;;;;;;4992933;28;20498;-52
2022/12/02 12:11:36;;;;;;;10.30;7.32;;;9.10;99.90;;;;;;4992465;28;20041;-56
2022/12/02 12:14:10;;;;;;;10.77;8.82;;;9.20;99.90;;;;;;4954800;28;20045;-53
2022/12/02 12:16:41;;;;;;;8.55;6.90;;;9.00;99.90;;;;;;4991829;28;20030;-53
2022/12/02 12:19:16;;;;;;;14.00;8.73;;;8.90;99.90;;;;;;4992560;28;20053;-57
2022/12/02 12:21:49;;;;;;;11.77;9.45;;;8.80;99.90;;;;;;4992330;28;20125;-52
2022/12/02 12:24:19;;;;;;;10.23;8.15;;;8.70;99.90;;;;;;4989875;28;20386;-54
2022/12/02 12:26:50;;;;;;;12.63;9.65;;;8.90;99.90;;;;;;4991562;28;20034;-53
2022/12/02 12:29:18;;;;;;;11.65;9.82;;;9.20;99.90;;;;;;4983616;28;20097;-49
2022/12/02 12:31:43;;;;;;;9.48;7.97;;;9.40;99.90;;;;;;4980319;28;20548;-58
2022/12/02 12:34:10;;;;;;;10.32;7.95;;;9.50;99.90;;;;;;5031210;28;20029;-52
2022/12/02 12:36:36;;;;;;;10.90;9.18;;;9.60;99.90;;;;;;4985806;28;20037;-49
2022/12/02 12:39:04;;;;;;;10.25;9.15;;;9.50;99.90;;;;;;5053418;28;20056;-51
2022/12/02 12:41:30;;;;;;;12.60;8.45;;;9.50;99.90;;;;;;5053152;28;20417;-50
2022/12/02 12:43:56;;;;;;;10.05;7.70;;;9.60;99.90;;;;;;5053383;28;20076;-47
2022/12/02 12:46:21;;;;;;;9.98;8.30;;;9.70;99.90;;;;;;5053656;28;20025;-51
2022/12/02 12:48:47;;;;;;;12.38;9.23;;;9.80;99.90;;;;;;5034560;28;20182;-54
2022/12/02 12:51:13;;;;;;;9.23;7.50;;;9.90;99.90;;;;;;5051341;28;20029;-49
2022/12/02 12:53:39;;;;;;;28.73;21.58;;;9.60;99.90;;;;;;5053654;28;20032;-59
2022/12/02 12:56:06;;;;;;;10.40;9.27;;;10.10;99.90;;;;;;5017852;28;20049;-52
2022/12/02 12:58:32;;;;;;;9.52;7.93;;;10.00;99.90;;;;;;5018350;28;20044;-51
2022/12/02 13:00:57;;;;;;;9.70;7.57;;;10.40;99.90;;;;;;5053371;28;20025;-51
2022/12/02 13:03:24;;;;;;;9.18;7.50;;;10.70;99.90;;;;;;5018261;28;20048;-47
2022/12/02 13:05:50;;;;;;;9.73;7.43;;;11.10;99.90;;;;;;5051314;28;20044;-61